Time;durP1;ratioP1;P1;durP2;ratioP2;P2;SDS_P1;SDS_P2;PMS_P1;PMS_P2;Temp;Humidity;BMP_temperature;BMP_pressure;BME280_temperature;BME280_humidity;BME280_pressure;Samples;Min_cycle;Max_cycle;Signal;HPM_P1;HPM_P2
2023/06/22 00:00:56;;;;;;;16.95;15.02;;;17.50;99.90;;;;;;5014905;28;20040;-80
2023/06/22 00:03:23;;;;;;;16.73;15.02;;;17.40;99.90;;;;;;5048210;28;20052;-79
2023/06/22 00:05:50;;;;;;;16.55;14.85;;;17.30;99.90;;;;;;5068597;28;20036;-84
2023/06/22 00:08:17;;;;;;;16.25;14.57;;;17.60;99.90;;;;;;5025260;28;20040;-84
2023/06/22 00:10:43;;;;;;;16.92;15.20;;;17.30;99.90;;;;;;5034559;28;20048;-83
2023/06/22 00:13:09;;;;;;;17.15;15.52;;;17.20;99.90;;;;;;5060427;28;20041;-81
2023/06/22 00:15:37;;;;;;;16.88;15.18;;;17.40;99.90;;;;;;5050028;28;20529;-84
2023/06/22 00:18:03;;;;;;;20.45;16.50;;;17.30;99.90;;;;;;5019431;28;20052;-83
2023/06/22 00:20:29;;;;;;;17.52;15.82;;;17.40;99.90;;;;;;5056146;28;20033;-81
2023/06/22 00:22:57;;;;;;;18.52;16.40;;;17.40;99.90;;;;;;5062078;28;20045;-83
2023/06/22 00:25:23;;;;;;;17.00;15.07;;;17.30;99.90;;;;;;5032446;28;20045;-84
2023/06/22 00:27:49;;;;;;;16.05;14.45;;;17.00;99.90;;;;;;5045208;28;20051;-79
2023/06/22 00:30:19;;;;;;;15.73;13.90;;;17.10;99.90;;;;;;5040248;28;20234;-83
2023/06/22 00:32:45;;;;;;;14.20;12.80;;;17.00;99.90;;;;;;5068869;28;20472;-83
2023/06/22 00:35:14;;;;;;;13.75;12.35;;;17.00;99.90;;;;;;5043422;28;20041;-85
2023/06/22 00:37:43;;;;;;;15.30;13.80;;;17.00;99.90;;;;;;5044626;28;20618;-82
2023/06/22 00:40:14;;;;;;;14.32;12.93;;;17.00;99.90;;;;;;5051559;28;20041;-85
2023/06/22 00:42:40;;;;;;;15.30;13.90;;;16.90;99.90;;;;;;5059185;28;20037;-82
2023/06/22 00:45:07;;;;;;;15.65;14.15;;;16.90;99.90;;;;;;5053638;28;20036;-81
2023/06/22 00:47:35;;;;;;;17.33;15.65;;;17.00;99.90;;;;;;5023601;28;20037;-81
2023/06/22 00:50:02;;;;;;;14.45;13.07;;;16.90;99.90;;;;;;5031073;28;20041;-80
2023/06/22 00:52:30;;;;;;;17.50;15.80;;;16.80;99.90;;;;;;5036144;28;20178;-81
2023/06/22 00:54:57;;;;;;;17.73;15.35;;;16.80;99.90;;;;;;5017634;28;20056;-81
2023/06/22 00:57:27;;;;;;;13.10;11.80;;;16.90;99.90;;;;;;5034838;28;20037;-82
2023/06/22 00:59:54;;;;;;;12.85;11.60;;;16.50;99.90;;;;;;5038583;28;20036;-82
2023/06/22 01:02:23;;;;;;;8.50;7.80;;;16.40;99.90;;;;;;5040878;28;20448;-81
2023/06/22 01:04:49;;;;;;;7.72;7.13;;;16.20;99.90;;;;;;5017193;28;20044;-80
2023/06/22 01:07:41;;;;;;;7.45;6.82;;;16.10;99.90;;;;;;5034190;28;20041;-80
2023/06/22 01:10:10;;;;;;;8.70;7.90;;;16.00;99.90;;;;;;5036391;28;20060;-82
2023/06/22 01:12:43;;;;;;;12.57;11.38;;;16.10;99.90;;;;;;5034373;28;20501;-82
2023/06/22 01:15:21;;;;;;;11.05;9.95;;;16.30;99.90;;;;;;5038476;28;20492;-82
2023/06/22 01:17:49;;;;;;;11.40;10.20;;;16.40;99.90;;;;;;5041063;28;20067;-82
2023/06/22 01:20:16;;;;;;;11.25;10.15;;;16.30;99.90;;;;;;5023832;28;20045;-83
2023/06/22 01:22:59;;;;;;;9.00;8.20;;;16.30;99.90;;;;;;5021882;28;20044;-81
2023/06/22 01:25:48;;;;;;;8.82;8.02;;;16.00;99.90;;;;;;5058755;28;20038;-83
2023/06/22 01:28:41;;;;;;;9.07;8.38;;;15.90;99.90;;;;;;5034370;28;20041;-82
2023/06/22 01:31:10;;;;;;;49.38;13.38;;;15.90;99.90;;;;;;5032698;28;20076;-82
2023/06/22 01:33:40;;;;;;;45.72;13.27;;;15.90;99.90;;;;;;5038558;28;20135;-82
2023/06/22 01:36:07;;;;;;;136.45;15.68;;;16.10;99.90;;;;;;5071532;28;20044;-82
2023/06/22 01:38:33;;;;;;;60.75;13.55;;;16.20;99.90;;;;;;5014068;28;20048;-82
2023/06/22 01:41:03;;;;;;;207.75;17.15;;;16.20;99.90;;;;;;5034161;28;20040;-81
2023/06/22 01:43:29;;;;;;;136.25;14.20;;;16.00;99.90;;;;;;5034757;28;20112;-82
2023/06/22 01:45:58;;;;;;;381.73;19.48;;;15.90;99.90;;;;;;5034540;28;20049;-83
2023/06/22 01:48:25;;;;;;;124.93;12.27;;;15.90;99.90;;;;;;5050696;28;20041;-84
2023/06/22 01:50:53;;;;;;;113.72;13.02;;;15.90;99.90;;;;;;5035439;28;20048;-84
2023/06/22 01:53:21;;;;;;;104.78;14.23;;;15.80;99.90;;;;;;5015348;28;20048;-84
2023/06/22 01:55:49;;;;;;;133.20;14.05;;;16.10;99.90;;;;;;5014741;28;20052;-83
2023/06/22 01:58:16;;;;;;;34.55;13.35;;;16.10;99.90;;;;;;5050389;28;20043;-83
2023/06/22 02:00:50;;;;;;;27.92;14.38;;;16.00;99.90;;;;;;5033598;28;20043;-82
2023/06/22 02:03:23;;;;;;;16.52;15.05;;;16.00;99.90;;;;;;5061369;28;20044;-83
2023/06/22 02:06:14;;;;;;;16.42;14.85;;;16.10;99.90;;;;;;5048583;28;20059;-83
2023/06/22 02:08:55;;;;;;;14.00;12.75;;;16.00;99.90;;;;;;5054272;28;20080;-84
2023/06/22 02:11:22;;;;;;;15.20;12.48;;;16.00;99.90;;;;;;5046558;28;20037;-83
2023/06/22 02:13:49;;;;;;;55.83;12.25;;;15.90;99.90;;;;;;5027222;28;20067;-82
2023/06/22 02:16:16;;;;;;;58.47;12.88;;;15.80;99.90;;;;;;5052549;28;20123;-85
2023/06/22 02:18:47;;;;;;;66.57;11.98;;;15.80;99.90;;;;;;5060004;28;20554;-83
2023/06/22 02:21:13;;;;;;;18.45;12.43;;;15.80;99.90;;;;;;5035946;28;20041;-85
2023/06/22 02:23:38;;;;;;;96.82;17.08;;;15.60;99.90;;;;;;5046994;28;20039;-83
2023/06/22 02:26:04;;;;;;;54.80;15.65;;;15.60;99.90;;;;;;5068765;28;20043;-82
2023/06/22 02:28:33;;;;;;;74.40;16.92;;;15.60;99.90;;;;;;5060101;28;20493;-83
2023/06/22 02:30:59;;;;;;;63.42;15.77;;;15.80;99.90;;;;;;5017630;28;20564;-83
2023/06/22 02:33:27;;;;;;;50.78;15.45;;;15.80;99.90;;;;;;5000645;28;20140;-83
2023/06/22 02:35:53;;;;;;;72.05;16.52;;;15.80;99.90;;;;;;5029340;28;20120;-83
2023/06/22 02:38:19;;;;;;;58.65;15.40;;;15.80;99.90;;;;;;5051815;28;20032;-83
2023/06/22 02:40:46;;;;;;;87.45;17.20;;;15.80;99.90;;;;;;5017539;28;20033;-82
2023/06/22 02:43:12;;;;;;;104.60;22.02;;;15.80;99.90;;;;;;5047957;28;20048;-81
2023/06/22 02:45:38;;;;;;;25.27;20.70;;;15.90;99.90;;;;;;5052898;28;20508;-83
2023/06/22 02:48:04;;;;;;;21.80;19.60;;;16.00;99.90;;;;;;5051587;28;20033;-81
2023/06/22 02:50:30;;;;;;;23.63;21.40;;;16.10;99.90;;;;;;5034018;28;20041;-82
2023/06/22 02:52:56;;;;;;;27.23;24.35;;;16.10;99.90;;;;;;5059021;28;20043;-83
2023/06/22 02:55:23;;;;;;;28.17;25.17;;;16.30;99.90;;;;;;5043072;28;20043;-84
2023/06/22 02:57:52;;;;;;;29.08;26.08;;;16.40;99.90;;;;;;5014101;28;20041;-82
2023/06/22 03:00:19;;;;;;;30.25;27.00;;;16.30;99.90;;;;;;5062339;28;20040;-81
2023/06/22 03:02:46;;;;;;;33.40;29.70;;;16.30;99.90;;;;;;5048263;28;20594;-82
2023/06/22 03:05:13;;;;;;;32.67;29.08;;;16.30;99.90;;;;;;5047038;28;20033;-81
2023/06/22 03:07:43;;;;;;;30.67;27.02;;;16.40;99.90;;;;;;5045497;28;20037;-82
2023/06/22 03:10:10;;;;;;;30.52;27.33;;;16.30;99.90;;;;;;5016317;28;20178;-82
2023/06/22 03:12:37;;;;;;;31.20;27.88;;;16.30;99.90;;;;;;5055454;28;20068;-84
2023/06/22 03:15:08;;;;;;;31.67;26.63;;;16.30;99.90;;;;;;5035837;28;20041;-85
2023/06/22 03:17:35;;;;;;;32.72;29.17;;;16.30;99.90;;;;;;5049018;28;20045;-83
2023/06/22 03:20:11;;;;;;;30.73;27.38;;;16.40;99.90;;;;;;5032405;28;20052;-83
2023/06/22 03:22:48;;;;;;;32.35;28.35;;;16.40;99.90;;;;;;5046125;28;20662;-83
2023/06/22 03:25:14;;;;;;;35.05;29.20;;;16.40;99.90;;;;;;5032218;28;20040;-82
2023/06/22 03:27:43;;;;;;;32.50;28.67;;;16.40;99.90;;;;;;5025761;28;20049;-83
2023/06/22 03:30:15;;;;;;;35.60;29.77;;;16.40;99.90;;;;;;5018008;28;20429;-84
2023/06/22 03:32:42;;;;;;;36.90;30.70;;;16.50;99.90;;;;;;5014046;28;20412;-84
2023/06/22 03:35:14;;;;;;;35.45;29.65;;;16.40;99.90;;;;;;5037321;28;20077;-87
2023/06/22 03:37:40;;;;;;;29.90;26.42;;;16.50;99.90;;;;;;5022158;28;20037;-84
2023/06/22 03:40:07;;;;;;;30.05;26.83;;;16.50;99.90;;;;;;5042459;28;20101;-83
2023/06/22 03:42:38;;;;;;;26.25;23.55;;;16.30;99.90;;;;;;5008585;28;20106;-82
2023/06/22 03:45:05;;;;;;;26.58;23.77;;;16.40;99.90;;;;;;4998833;28;20354;-84
2023/06/22 03:47:32;;;;;;;28.55;21.38;;;16.40;99.90;;;;;;4999632;28;20040;-83
2023/06/22 03:49:58;;;;;;;26.42;19.98;;;16.40;99.90;;;;;;5030717;28;20040;-85
2023/06/22 03:52:25;;;;;;;40.60;20.17;;;16.30;99.90;;;;;;5032940;28;20041;-85
2023/06/22 03:54:50;;;;;;;37.22;18.25;;;16.30;99.90;;;;;;5031912;28;20037;-83
2023/06/22 03:57:16;;;;;;;80.88;18.75;;;16.20;99.90;;;;;;5032831;28;20518;-83
2023/06/22 03:59:42;;;;;;;32.28;17.83;;;16.20;99.90;;;;;;5031429;28;20119;-83
2023/06/22 04:02:08;;;;;;;30.63;17.90;;;16.10;99.90;;;;;;5032504;28;20043;-83
2023/06/22 04:04:35;;;;;;;27.65;17.60;;;16.10;99.90;;;;;;5038040;28;20037;-86
2023/06/22 04:07:00;;;;;;;43.67;17.73;;;16.20;99.90;;;;;;5039629;28;20044;-85
2023/06/22 04:09:26;;;;;;;33.58;18.80;;;16.00;99.90;;;;;;5044905;28;20088;-84
2023/06/22 04:11:53;;;;;;;19.20;16.88;;;16.20;99.90;;;;;;5002654;28;20045;-83
2023/06/22 04:14:18;;;;;;;17.35;15.88;;;16.10;99.90;;;;;;5067541;28;20048;-82
2023/06/22 04:16:47;;;;;;;19.40;17.70;;;16.30;99.90;;;;;;5037742;28;20175;-86
2023/06/22 04:19:16;;;;;;;21.08;19.08;;;16.20;99.90;;;;;;4999988;28;20083;-84
2023/06/22 04:21:44;;;;;;;24.42;21.98;;;16.20;99.90;;;;;;5027764;28;20041;-82
2023/06/22 04:24:11;;;;;;;26.02;23.30;;;16.30;99.90;;;;;;5030604;28;20065;-83
2023/06/22 04:26:37;;;;;;;24.20;21.85;;;16.30;99.90;;;;;;5048859;28;20575;-83
2023/06/22 04:29:05;;;;;;;23.35;21.02;;;16.30;99.90;;;;;;5041206;28;20121;-85
2023/06/22 04:31:37;;;;;;;22.88;20.67;;;16.30;99.90;;;;;;5032137;28;20478;-84
2023/06/22 04:34:07;;;;;;;25.20;22.67;;;16.40;99.90;;;;;;5024974;28;20075;-84
2023/06/22 04:36:41;;;;;;;21.85;19.85;;;16.60;99.90;;;;;;5049869;28;20074;-83
2023/06/22 04:39:12;;;;;;;25.38;22.77;;;16.60;99.90;;;;;;5049060;28;20517;-81
2023/06/22 04:41:43;;;;;;;29.30;26.27;;;16.60;99.90;;;;;;5045798;28;20065;-82
2023/06/22 04:44:26;;;;;;;31.85;28.45;;;16.70;99.90;;;;;;5038000;28;20131;-82
2023/06/22 04:47:00;;;;;;;30.35;27.23;;;16.80;99.90;;;;;;5063286;28;20380;-84
2023/06/22 04:49:32;;;;;;;30.52;27.30;;;16.90;99.90;;;;;;5010656;28;20069;-82
2023/06/22 04:52:06;;;;;;;36.88;32.40;;;17.10;99.90;;;;;;5043404;28;20831;-86
2023/06/22 04:54:32;;;;;;;35.45;31.58;;;17.20;99.90;;;;;;5049609;28;20120;-81
2023/06/22 04:57:02;;;;;;;39.47;34.08;;;17.20;99.90;;;;;;5038093;28;20250;-84
2023/06/22 04:59:29;;;;;;;39.80;34.42;;;17.40;99.90;;;;;;5037123;28;20048;-83
2023/06/22 05:02:00;;;;;;;38.67;33.05;;;17.40;99.90;;;;;;5033957;28;20032;-82
2023/06/22 05:04:27;;;;;;;39.60;35.00;;;17.50;99.90;;;;;;5031291;28;20103;-84
2023/06/22 05:06:54;;;;;;;41.53;34.22;;;17.60;99.90;;;;;;5031990;28;20072;-81
2023/06/22 05:09:20;;;;;;;37.65;33.53;;;17.80;99.90;;;;;;5052678;28;20178;-82
2023/06/22 05:11:47;;;;;;;40.55;36.10;;;17.70;99.90;;;;;;5054285;28;20036;-79
2023/06/22 05:14:13;;;;;;;39.97;35.38;;;17.80;99.90;;;;;;5040321;28;20362;-81
2023/06/22 05:16:40;;;;;;;39.85;34.08;;;17.90;99.90;;;;;;5015381;28;20029;-83
2023/06/22 05:19:06;;;;;;;35.83;31.95;;;17.90;99.90;;;;;;5042919;28;20084;-83
2023/06/22 05:21:32;;;;;;;39.80;34.47;;;18.00;99.90;;;;;;5032097;28;20068;-82
2023/06/22 05:24:02;;;;;;;41.15;34.17;;;18.20;99.90;;;;;;5035268;28;20392;-84
2023/06/22 05:26:33;;;;;;;39.38;35.10;;;18.20;99.90;;;;;;5034718;28;20033;-83
2023/06/22 05:29:00;;;;;;;38.67;33.63;;;18.20;99.90;;;;;;5051547;28;20067;-86
2023/06/22 05:31:26;;;;;;;34.65;30.85;;;18.40;99.90;;;;;;5052313;28;20142;-81
2023/06/22 05:33:54;;;;;;;34.70;30.85;;;18.60;99.90;;;;;;5053484;28;20041;-82
2023/06/22 05:36:21;;;;;;;33.40;29.33;;;18.60;99.90;;;;;;5049346;28;20444;-82
2023/06/22 05:38:47;;;;;;;35.38;31.58;;;18.70;99.90;;;;;;5048243;28;20131;-77
2023/06/22 05:41:13;;;;;;;37.28;31.55;;;18.70;99.90;;;;;;5037325;28;20044;-79
2023/06/22 05:43:39;;;;;;;32.20;28.80;;;18.90;99.90;;;;;;5032521;28;20095;-76
2023/06/22 05:46:06;;;;;;;31.88;28.52;;;19.10;99.90;;;;;;5016141;28;20043;-76
2023/06/22 05:48:31;;;;;;;29.80;26.63;;;19.20;99.90;;;;;;5038798;28;20500;-73
2023/06/22 05:50:57;;;;;;;29.65;26.00;;;19.30;99.90;;;;;;5049034;28;20076;-77
2023/06/22 05:53:23;;;;;;;30.85;27.52;;;19.30;99.90;;;;;;5030969;28;20119;-78
2023/06/22 05:55:50;;;;;;;27.90;24.70;;;19.30;99.90;;;;;;5032253;28;20052;-78
2023/06/22 05:58:15;;;;;;;28.15;25.20;;;19.40;99.90;;;;;;5033002;28;20067;-77
2023/06/22 06:00:43;;;;;;;26.35;22.95;;;19.60;99.90;;;;;;5016320;28;20102;-77
2023/06/22 06:03:09;;;;;;;29.42;23.70;;;19.80;99.90;;;;;;5049361;28;20048;-80
2023/06/22 06:05:36;;;;;;;27.30;22.88;;;19.80;99.90;;;;;;5049626;28;20203;-76
2023/06/22 06:08:07;;;;;;;23.25;20.85;;;19.90;99.90;;;;;;5032678;28;20473;-78
2023/06/22 06:10:33;;;;;;;24.83;21.10;;;19.90;99.90;;;;;;5037136;28;20102;-78
2023/06/22 06:13:02;;;;;;;22.10;19.85;;;19.90;99.90;;;;;;5029241;28;20049;-81
2023/06/22 06:15:28;;;;;;;23.58;21.08;;;19.90;99.90;;;;;;5041763;28;20388;-78
2023/06/22 06:17:54;;;;;;;20.80;18.13;;;20.00;99.90;;;;;;5010351;28;20654;-78
2023/06/22 06:20:24;;;;;;;22.83;18.52;;;20.20;99.90;;;;;;5012603;28;20565;-75
2023/06/22 06:22:50;;;;;;;20.90;18.63;;;20.20;99.90;;;;;;5040912;28;20453;-77
2023/06/22 06:25:16;;;;;;;19.90;16.88;;;20.60;99.90;;;;;;5037237;28;20257;-76
2023/06/22 06:27:46;;;;;;;18.33;16.40;;;20.60;99.90;;;;;;5039831;28;20473;-77
2023/06/22 06:30:14;;;;;;;16.60;14.98;;;20.50;99.90;;;;;;5043441;28;20032;-78
2023/06/22 06:32:40;;;;;;;17.40;15.60;;;20.50;99.90;;;;;;5030964;28;20126;-77
2023/06/22 06:35:07;;;;;;;18.08;15.55;;;20.60;99.90;;;;;;5031698;28;20485;-78
2023/06/22 06:37:37;;;;;;;16.23;14.63;;;20.80;99.90;;;;;;5015984;28;20544;-77
2023/06/22 06:40:05;;;;;;;15.50;13.98;;;20.80;99.90;;;;;;5015504;28;20389;-78
2023/06/22 06:42:31;;;;;;;16.15;14.50;;;21.20;99.90;;;;;;5055923;28;20125;-76
2023/06/22 06:44:57;;;;;;;16.77;15.07;;;21.30;99.90;;;;;;5040490;28;20040;-77
2023/06/22 06:47:23;;;;;;;17.00;15.30;;;21.10;99.90;;;;;;5002652;28;20063;-78
2023/06/22 06:49:48;;;;;;;15.77;14.27;;;21.20;99.90;;;;;;5056432;28;20051;-76
2023/06/22 06:52:14;;;;;;;17.83;15.00;;;21.60;99.90;;;;;;5032337;28;20052;-78
2023/06/22 06:54:41;;;;;;;14.38;12.93;;;21.40;99.90;;;;;;5029852;28;20041;-78
2023/06/22 06:57:10;;;;;;;15.27;13.75;;;21.70;99.90;;;;;;5028612;28;20036;-76
2023/06/22 06:59:36;;;;;;;14.63;13.18;;;21.80;99.90;;;;;;5030502;28;20094;-79
2023/06/22 07:02:02;;;;;;;15.82;12.95;;;22.10;99.90;;;;;;5012731;28;20073;-78
2023/06/22 07:04:27;;;;;;;13.15;11.32;;;21.90;99.90;;;;;;5022550;28;20388;-77
2023/06/22 07:06:53;;;;;;;11.23;10.07;;;22.10;99.90;;;;;;5014602;28;20444;-77
2023/06/22 07:09:18;;;;;;;14.80;10.85;;;22.10;99.90;;;;;;5006339;28;20041;-78
2023/06/22 07:11:44;;;;;;;12.20;11.00;;;22.10;99.90;;;;;;5041240;28;20056;-79
2023/06/22 07:14:10;;;;;;;12.43;11.15;;;22.30;99.90;;;;;;5028085;28;20585;-77
2023/06/22 07:16:35;;;;;;;11.25;9.60;;;22.30;99.90;;;;;;5031352;28;20037;-79
2023/06/22 07:19:01;;;;;;;10.18;9.18;;;22.70;99.90;;;;;;5017662;28;20111;-79
2023/06/22 07:21:27;;;;;;;12.18;10.88;;;22.70;99.90;;;;;;5031246;28;20042;-78
2023/06/22 07:23:54;;;;;;;10.50;9.48;;;22.60;99.90;;;;;;5021543;28;20051;-78
2023/06/22 07:26:19;;;;;;;10.80;8.98;;;22.80;99.90;;;;;;5029825;28;20044;-78
2023/06/22 07:28:45;;;;;;;11.27;8.73;;;22.80;99.90;;;;;;5046826;28;20045;-79
2023/06/22 07:31:11;;;;;;;9.90;8.95;;;22.60;99.90;;;;;;5030402;28;20072;-80
2023/06/22 07:33:36;;;;;;;10.60;9.25;;;22.60;99.90;;;;;;5047691;28;20040;-79
2023/06/22 07:36:07;;;;;;;10.07;9.02;;;22.70;99.90;;;;;;5045307;28;20049;-80
2023/06/22 07:38:33;;;;;;;11.20;8.90;;;22.90;99.90;;;;;;5051147;28;20075;-80
2023/06/22 07:40:59;;;;;;;11.00;9.32;;;23.00;99.90;;;;;;5014105;28;20037;-77
2023/06/22 07:43:25;;;;;;;9.25;7.90;;;23.00;99.90;;;;;;5030871;28;20393;-78
2023/06/22 07:45:54;;;;;;;8.40;7.50;;;22.90;99.90;;;;;;5030099;28;20045;-79
2023/06/22 07:48:23;;;;;;;9.25;8.32;;;23.00;99.90;;;;;;5047483;28;20045;-78
2023/06/22 07:50:49;;;;;;;9.32;8.30;;;22.80;99.90;;;;;;5046401;28;20564;-79
2023/06/22 07:53:15;;;;;;;8.05;6.60;;;22.90;99.90;;;;;;5043993;28;20048;-79
2023/06/22 07:55:40;;;;;;;7.63;6.82;;;23.20;99.90;;;;;;5028626;28;20041;-77
2023/06/22 07:58:06;;;;;;;8.60;7.43;;;23.00;99.90;;;;;;5048756;28;20037;-77
2023/06/22 08:00:33;;;;;;;10.10;8.93;;;22.90;99.90;;;;;;5014033;28;20032;-78
2023/06/22 08:02:59;;;;;;;10.05;9.05;;;23.20;99.90;;;;;;5030676;28;20656;-78
2023/06/22 08:05:24;;;;;;;8.10;7.28;;;23.20;99.90;;;;;;5035558;28;20048;-78
2023/06/22 08:07:50;;;;;;;7.15;6.45;;;23.20;99.90;;;;;;5049322;28;20053;-79
2023/06/22 08:10:16;;;;;;;7.45;6.15;;;23.40;99.90;;;;;;5042415;28;20048;-79
2023/06/22 08:12:42;;;;;;;8.77;5.47;;;23.60;99.90;;;;;;5030567;28;20098;-80
2023/06/22 08:15:09;;;;;;;5.90;5.28;;;23.60;99.90;;;;;;5052129;28;20045;-80
2023/06/22 08:17:39;;;;;;;7.00;6.30;;;23.60;99.90;;;;;;5030920;28;20053;-80
2023/06/22 08:20:11;;;;;;;6.78;6.07;;;23.70;99.90;;;;;;5046810;28;20041;-80
2023/06/22 08:22:37;;;;;;;7.05;6.40;;;23.90;99.90;;;;;;5030322;28;20489;-80
2023/06/22 08:25:03;;;;;;;6.20;5.60;;;23.70;99.90;;;;;;5029856;28;20041;-79
2023/06/22 08:27:31;;;;;;;7.88;5.43;;;23.40;99.90;;;;;;5029233;28;20044;-79
2023/06/22 08:29:58;;;;;;;6.47;5.80;;;23.50;99.90;;;;;;5028837;28;20124;-80
2023/06/22 08:32:26;;;;;;;6.63;5.45;;;23.60;99.90;;;;;;4996476;28;20037;-80
2023/06/22 08:34:54;;;;;;;5.72;5.00;;;24.00;99.90;;;;;;5030190;28;20052;-79
2023/06/22 08:37:19;;;;;;;6.38;5.50;;;24.10;99.90;;;;;;5013643;28;20033;-79
2023/06/22 08:39:46;;;;;;;5.90;5.38;;;23.80;99.90;;;;;;5048404;28;20033;-79
2023/06/22 08:42:12;;;;;;;5.30;4.80;;;23.70;99.90;;;;;;5016615;28;20496;-80
2023/06/22 08:44:38;;;;;;;6.85;4.90;;;23.90;99.90;;;;;;5016942;28;20048;-76
2023/06/22 08:47:04;;;;;;;7.22;4.40;;;23.80;99.90;;;;;;5015658;28;20480;-77
2023/06/22 08:49:30;;;;;;;6.05;4.90;;;24.20;99.90;;;;;;5048476;28;20428;-77
2023/06/22 08:51:56;;;;;;;5.28;4.35;;;24.10;99.90;;;;;;5054156;28;20097;-77
2023/06/22 08:54:23;;;;;;;5.05;4.30;;;24.10;99.90;;;;;;5035157;28;20532;-76
2023/06/22 08:56:48;;;;;;;7.90;4.75;;;24.40;99.90;;;;;;5049630;28;20052;-76
2023/06/22 08:59:14;;;;;;;6.57;5.40;;;24.60;99.90;;;;;;5032092;28;20041;-76
2023/06/22 09:01:40;;;;;;;6.50;5.05;;;24.30;99.90;;;;;;5063301;28;20045;-73
2023/06/22 09:04:09;;;;;;;6.35;4.65;;;24.70;99.90;;;;;;5030741;28;20410;-76
2023/06/22 09:06:34;;;;;;;7.00;5.22;;;24.80;99.90;;;;;;5015863;28;20056;-76
2023/06/22 09:09:00;;;;;;;6.63;5.28;;;24.80;99.90;;;;;;5049659;28;20052;-75
2023/06/22 09:11:26;;;;;;;6.60;4.45;;;24.70;99.90;;;;;;5050381;28;20041;-76
2023/06/22 09:13:53;;;;;;;5.00;4.50;;;25.10;99.90;;;;;;5017333;28;20052;-76
2023/06/22 09:16:19;;;;;;;5.15;4.57;;;25.50;99.90;;;;;;5047367;28;20037;-77
2023/06/22 09:18:48;;;;;;;5.93;5.10;;;25.60;99.90;;;;;;5015900;28;20041;-76
2023/06/22 09:21:14;;;;;;;6.10;4.72;;;25.70;99.90;;;;;;5029855;28;20649;-76
2023/06/22 09:23:40;;;;;;;6.45;4.80;;;25.60;99.90;;;;;;5053095;28;20069;-77
2023/06/22 09:26:06;;;;;;;5.03;4.00;;;25.80;99.90;;;;;;5048126;28;20809;-76
2023/06/22 09:28:33;;;;;;;5.97;4.85;;;26.10;99.90;;;;;;5042763;28;20049;-77
2023/06/22 09:30:59;;;;;;;6.93;5.18;;;25.80;99.90;;;;;;5032336;28;20515;-78
2023/06/22 09:33:26;;;;;;;4.85;4.35;;;25.30;99.90;;;;;;5053929;28;20051;-77
2023/06/22 09:35:52;;;;;;;5.95;5.30;;;25.80;99.90;;;;;;5058833;28;20052;-76
2023/06/22 09:38:17;;;;;;;6.40;5.60;;;25.70;99.90;;;;;;5046918;28;20124;-75
2023/06/22 09:40:43;;;;;;;5.75;5.15;;;25.50;99.90;;;;;;5033835;28;20404;-75
2023/06/22 09:43:09;;;;;;;6.20;5.45;;;26.20;99.90;;;;;;5032600;28;20120;-75
2023/06/22 09:45:34;;;;;;;6.90;6.28;;;26.60;99.90;;;;;;5031865;28;20669;-77
2023/06/22 09:48:01;;;;;;;6.20;5.60;;;25.80;99.90;;;;;;5044924;28;20037;-76
2023/06/22 09:50:26;;;;;;;6.25;5.65;;;26.70;99.90;;;;;;5045090;28;20072;-77
2023/06/22 09:52:54;;;;;;;7.32;6.63;;;26.50;99.90;;;;;;5047838;28;20065;-75
2023/06/22 09:55:23;;;;;;;6.78;6.15;;;26.70;99.90;;;;;;5043793;28;20098;-75
2023/06/22 09:57:49;;;;;;;6.75;6.13;;;26.10;99.90;;;;;;5031803;28;20059;-75
2023/06/22 10:00:18;;;;;;;7.90;7.10;;;26.30;99.90;;;;;;5048822;28;20513;-76
2023/06/22 10:02:44;;;;;;;9.10;6.07;;;26.00;99.90;;;;;;5028792;28;20385;-75
2023/06/22 10:05:10;;;;;;;8.32;6.38;;;27.20;99.90;;;;;;5032306;28;20043;-75
2023/06/22 10:07:42;;;;;;;8.23;6.88;;;26.70;99.90;;;;;;5031278;28;20040;-75
2023/06/22 10:10:09;;;;;;;6.40;5.80;;;26.50;99.90;;;;;;5049373;28;20055;-74
2023/06/22 10:12:34;;;;;;;6.05;5.45;;;26.90;99.90;;;;;;5014000;28;20048;-76
2023/06/22 10:15:00;;;;;;;7.65;6.90;;;27.20;99.90;;;;;;5031196;28;20096;-76
2023/06/22 10:17:26;;;;;;;9.23;6.10;;;26.30;99.90;;;;;;5032050;28;20048;-75
2023/06/22 10:19:52;;;;;;;8.75;6.53;;;27.30;99.90;;;;;;5015968;28;20096;-76
2023/06/22 10:22:17;;;;;;;7.45;6.72;;;26.80;99.90;;;;;;5014569;28;20039;-76
2023/06/22 10:24:46;;;;;;;7.15;6.28;;;26.70;99.90;;;;;;5029517;28;20044;-77
2023/06/22 10:27:12;;;;;;;6.53;5.93;;;27.40;99.90;;;;;;5010280;28;20049;-77
2023/06/22 10:29:38;;;;;;;5.72;5.13;;;27.40;99.90;;;;;;5014512;28;20048;-78
2023/06/22 10:32:04;;;;;;;6.70;6.10;;;27.50;99.90;;;;;;5014077;28;20045;-77
2023/06/22 10:34:30;;;;;;;7.45;6.32;;;27.80;99.90;;;;;;5023624;28;20037;-77
2023/06/22 10:36:56;;;;;;;6.50;5.88;;;27.90;99.90;;;;;;5044146;28;20047;-75
2023/06/22 10:39:22;;;;;;;6.43;5.82;;;28.10;99.90;;;;;;5012325;28;20041;-75
2023/06/22 10:41:48;;;;;;;7.32;6.47;;;28.60;99.90;;;;;;5030728;28;20083;-77
2023/06/22 10:44:14;;;;;;;5.78;5.25;;;27.40;98.70;;;;;;5044207;28;20041;-77
2023/06/22 10:46:40;;;;;;;5.43;4.93;;;27.70;99.90;;;;;;5028500;28;20072;-76
2023/06/22 10:49:05;;;;;;;6.18;5.50;;;28.60;99.50;;;;;;5012573;28;20064;-75
2023/06/22 10:51:32;;;;;;;5.88;5.30;;;27.70;22.20;;;;;;5030082;28;20041;-77
2023/06/22 10:53:57;;;;;;;6.38;5.53;;;27.90;57.90;;;;;;5026230;28;20068;-77
2023/06/22 10:56:23;;;;;;;6.15;5.55;;;27.70;35.50;;;;;;5012907;28;20080;-76
2023/06/22 10:58:49;;;;;;;5.85;5.30;;;27.30;43.00;;;;;;5029878;28;20083;-76
2023/06/22 11:01:15;;;;;;;5.90;5.32;;;28.00;42.10;;;;;;5011981;28;20521;-77
2023/06/22 11:03:41;;;;;;;7.32;5.63;;;27.00;27.80;;;;;;5046042;28;20071;-77
2023/06/22 11:06:07;;;;;;;8.27;6.22;;;27.10;13.20;;;;;;5029965;28;20469;-77
2023/06/22 11:08:33;;;;;;;6.25;5.18;;;27.40;1.00;;;;;;5012902;28;20048;-77
2023/06/22 11:10:58;;;;;;;5.85;5.35;;;27.90;1.00;;;;;;5047159;28;20049;-77
2023/06/22 11:13:25;;;;;;;5.40;4.85;;;28.00;1.00;;;;;;5031761;28;20536;-77
2023/06/22 11:15:50;;;;;;;6.10;4.50;;;28.40;14.50;;;;;;5031297;28;20631;-78
2023/06/22 11:18:16;;;;;;;5.57;5.07;;;29.00;77.00;;;;;;5013441;28;20107;-77
2023/06/22 11:20:42;;;;;;;6.18;5.57;;;28.50;73.90;;;;;;5013141;28;20068;-77
2023/06/22 11:23:08;;;;;;;5.90;5.30;;;27.60;79.00;;;;;;5049903;28;20039;-76
2023/06/22 11:25:38;;;;;;;7.15;5.22;;;27.40;93.20;;;;;;5045837;28;20049;-76
2023/06/22 11:28:04;;;;;;;6.30;5.70;;;27.50;91.60;;;;;;5014978;28;20045;-77
2023/06/22 11:30:30;;;;;;;6.63;6.03;;;27.60;75.70;;;;;;5046569;28;20139;-77
2023/06/22 11:32:59;;;;;;;5.65;5.15;;;27.00;79.10;;;;;;5034169;28;20041;-75
2023/06/22 11:35:26;;;;;;;6.38;5.68;;;27.40;92.90;;;;;;5010540;28;20036;-78
2023/06/22 11:37:51;;;;;;;5.72;5.22;;;27.30;87.70;;;;;;5040477;28;20041;-76
2023/06/22 11:40:17;;;;;;;5.40;4.95;;;27.00;95.90;;;;;;5050108;28;20698;-76
2023/06/22 11:42:43;;;;;;;6.07;4.75;;;27.40;91.30;;;;;;5031724;28;20028;-77
2023/06/22 11:45:10;;;;;;;6.13;5.50;;;27.50;85.50;;;;;;5041860;28;20087;-76
2023/06/22 11:47:36;;;;;;;6.20;5.10;;;27.40;79.50;;;;;;5013555;28;21531;-76
2023/06/22 11:50:03;;;;;;;5.82;5.32;;;27.10;89.10;;;;;;5058435;28;20052;-76
2023/06/22 11:52:28;;;;;;;5.95;5.35;;;26.70;92.00;;;;;;5042219;28;20049;-77
2023/06/22 11:54:54;;;;;;;8.40;5.65;;;26.80;87.60;;;;;;4999282;28;20040;-77
2023/06/22 11:57:19;;;;;;;8.43;6.03;;;26.80;87.00;;;;;;5016292;28;20097;-75
2023/06/22 11:59:45;;;;;;;5.82;5.07;;;26.80;84.20;;;;;;5015048;28;20503;-75
2023/06/22 12:02:11;;;;;;;5.85;5.25;;;26.80;91.00;;;;;;5033668;28;20041;-76
2023/06/22 12:04:37;;;;;;;6.53;5.38;;;26.60;90.20;;;;;;5035613;28;20047;-77
2023/06/22 12:07:03;;;;;;;6.47;5.20;;;26.20;92.70;;;;;;5020512;28;20048;-76
2023/06/22 12:09:29;;;;;;;5.18;4.65;;;26.40;89.60;;;;;;5029657;28;20874;-76
2023/06/22 12:11:54;;;;;;;5.88;5.38;;;26.50;91.50;;;;;;5004020;28;20455;-77
2023/06/22 12:14:20;;;;;;;6.18;5.57;;;26.60;86.30;;;;;;5047931;28;20124;-76
2023/06/22 12:16:46;;;;;;;6.88;5.90;;;26.90;90.30;;;;;;5007633;28;20140;-76
2023/06/22 12:19:12;;;;;;;7.95;6.53;;;26.40;82.50;;;;;;5029137;28;20057;-76
2023/06/22 12:21:39;;;;;;;9.05;5.68;;;26.00;1.00;;;;;;5049755;28;20043;-75
2023/06/22 12:24:04;;;;;;;6.15;5.55;;;26.30;1.00;;;;;;5029180;28;20041;-75
2023/06/22 12:26:30;;;;;;;7.07;6.22;;;25.80;1.00;;;;;;5048181;28;20102;-75
2023/06/22 12:28:56;;;;;;;7.90;5.78;;;26.30;1.00;;;;;;5030456;28;20208;-77
2023/06/22 12:31:21;;;;;;;6.82;6.13;;;25.70;1.00;;;;;;5021176;28;20045;-76
2023/06/22 12:33:47;;;;;;;6.43;5.75;;;26.00;1.00;;;;;;5059575;28;20439;-76
2023/06/22 12:36:13;;;;;;;6.45;5.85;;;26.30;1.00;;;;;;5049255;28;20416;-76